Pj Brix — WDD5130 — position and weather

sailwx.info

Track history (hours):
 
Tides and Currents Weather Stations Pressure Air Temp Water Temp Dewpoint Dewpoint Depression Visibility Wind Speed Wind Dir Waves Ship Positions

Pj Brix

Owner: Foss Maritime Co., Portland, OR. More information available from US FCC via Universal Licensing System and Coast Guard Vessel Documentation Center.

Last reported at 2018-Jan-19 00:45 UTC. Time now 2018-Jan-19 01:23 UTC.
Position N 45°39' W 122°45'.

Length 39 m; draft 3 m.

Type: Towing. MMSI: 2249672.

Date/timePositionNaut miles runAvg speedWind from/ knotsBaromVisibWave heightAir tempDewpointWater temp
2018-Jan-19 00:45N 45°39' W 122°45'0 0.0
2018-Jan-19 00:29N 45°39' W 122°45'0 0.0
2018-Jan-18 23:59N 45°39' W 122°45'0 0.0
2018-Jan-18 23:29N 45°39' W 122°45'0 0.0
2018-Jan-18 22:56N 45°39' W 122°45'0 0.0
2018-Jan-18 22:29N 45°39' W 122°45'0 0.0
2018-Jan-18 21:59N 45°39' W 122°45'0 0.0
2018-Jan-18 21:27N 45°39' W 122°45'0 0.0
2018-Jan-18 20:47N 45°39' W 122°45'0 0.0
2018-Jan-18 20:26N 45°39' W 122°45'0 0.0
2018-Jan-18 20:00N 45°39' W 122°45'0 0.0
2018-Jan-18 19:30N 45°39' W 122°45'0 0.0
2018-Jan-18 18:59N 45°39' W 122°45'0 0.0
2018-Jan-18 18:30N 45°39' W 122°45'0 0.0
2018-Jan-18 18:00N 45°39' W 122°45'0 0.0
2018-Jan-18 17:29N 45°39' W 122°45'0 0.0
2018-Jan-18 16:59N 45°39' W 122°45'0 0.0
2018-Jan-18 16:27N 45°39' W 122°45'0 0.0
2018-Jan-18 16:00N 45°39' W 122°45'0 0.0
2018-Jan-18 15:29N 45°39' W 122°45'0 0.0
2018-Jan-18 14:56N 45°39' W 122°45'0 0.0
2018-Jan-18 14:30N 45°39' W 122°45'0 0.0
2018-Jan-18 14:00N 45°39' W 122°45'0 0.0
2018-Jan-18 13:29N 45°39' W 122°45'0 0.0
2018-Jan-18 12:56N 45°39' W 122°45'0 0.0
2018-Jan-18 12:20N 45°39' W 122°45'0 0.0
2018-Jan-18 11:56N 45°39' W 122°45'0 0.0
2018-Jan-18 11:29N 45°39' W 122°45'0 0.0
2018-Jan-18 10:57N 45°39' W 122°45'0 0.0
2018-Jan-18 10:20N 45°39' W 122°45'0 0.0
2018-Jan-18 09:54N 45°39' W 122°45'0 0.0
2018-Jan-18 09:30N 45°39' W 122°45'0 0.0
2018-Jan-18 08:59N 45°39' W 122°45'0 0.0
2018-Jan-18 08:30N 45°39' W 122°45'0 0.0
2018-Jan-18 07:59N 45°39' W 122°45'0 0.0
2018-Jan-18 07:29N 45°39' W 122°45'0 0.0
2018-Jan-18 06:59N 45°39' W 122°45'0 0.0
2018-Jan-18 06:29N 45°39' W 122°45'0 0.0
2018-Jan-18 06:00N 45°39' W 122°45'0 0.0
2018-Jan-18 05:26N 45°39' W 122°45'0 0.0
2018-Jan-18 04:56N 45°39' W 122°45'0 0.0
2018-Jan-18 04:29N 45°39' W 122°45'0 0.0
2018-Jan-18 04:00N 45°39' W 122°45'1 1.3
2018-Jan-18 03:30N 45°39' W 122°46'0 0.9
2018-Jan-18 03:00N 45°39' W 122°46'1 1.5
2018-Jan-18 02:30N 45°39' W 122°46'0 0.9
2018-Jan-18 02:00N 45°39' W 122°45'2 3.1
2018-Jan-18 01:21N 45°38' W 122°47'3 7.6
2018-Jan-18 01:00N 45°35' W 122°46'0 0.2
2018-Jan-18 00:00N 45°35' W 122°46'0 0.0
2018-Jan-17 23:57N 45°35' W 122°46'  
2018-Jan-12 15:00N 45°43' W 122°46'4 7.7
2018-Jan-12 14:30N 45°39' W 122°45'0 0.0
2018-Jan-12 14:00N 45°39' W 122°45'0 0.0
2018-Jan-12 13:31N 45°39' W 122°45'0 0.0
2018-Jan-12 13:01N 45°39' W 122°45'0 0.0
2018-Jan-12 12:31N 45°39' W 122°45'0 0.0
2018-Jan-12 12:00N 45°39' W 122°45'0 0.0
2018-Jan-12 11:31N 45°39' W 122°45'0 0.0
2018-Jan-12 11:00N 45°39' W 122°45'0 0.0
2018-Jan-12 10:31N 45°39' W 122°45'0 0.0
2018-Jan-12 10:00N 45°39' W 122°45'0 0.0
2018-Jan-12 09:30N 45°39' W 122°45'0 0.0
2018-Jan-12 09:01N 45°39' W 122°45'0 0.0
2018-Jan-12 08:31N 45°39' W 122°45'0 0.0
2018-Jan-12 08:01N 45°39' W 122°45'1 2.6
2018-Jan-12 07:30N 45°38' W 122°47'2 4.8
2018-Jan-12 07:00N 45°36' W 122°46'0 0.1
2018-Jan-12 06:30N 45°36' W 122°46'1 2.5
2018-Jan-12 06:00N 45°37' W 122°47'2 4.6
2018-Jan-12 05:30N 45°39' W 122°45'1 2.7
2018-Jan-12 04:58N 45°38' W 122°43'1 2.6
2018-Jan-12 04:30N 45°39' W 122°45'2 4.6
2018-Jan-12 04:01N 45°37' W 122°47'5 9.7
2018-Jan-12 03:31N 45°33' W 122°43'0 0.5
2018-Jan-12 03:00N 45°33' W 122°42'2 3.2
2018-Jan-12 02:31N 45°34' W 122°44'0 0.4
2018-Jan-12 02:01N 45°34' W 122°44'0 0.3
2018-Jan-12 01:31N 45°34' W 122°44'0 0.0
2018-Jan-12 01:00N 45°34' W 122°44'0 0.0
2018-Jan-12 00:30N 45°34' W 122°44'0 0.0
2018-Jan-12 00:01N 45°34' W 122°44'0 0.0
2018-Jan-11 23:30N 45°34' W 122°44'0 0.0
2018-Jan-11 23:01N 45°34' W 122°44'0 0.0
2018-Jan-11 22:30N 45°34' W 122°44'0 0.0
2018-Jan-11 22:00N 45°34' W 122°44'0 0.0
2018-Jan-11 21:31N 45°34' W 122°44'0 0.0
2018-Jan-11 21:00N 45°34' W 122°44'0 0.0
2018-Jan-11 20:30N 45°34' W 122°44'0 0.0
2018-Jan-11 20:00N 45°34' W 122°44'0 0.0
2018-Jan-11 19:31N 45°34' W 122°44'0 0.0
2018-Jan-11 19:00N 45°34' W 122°44'0 0.0
2018-Jan-11 18:31N 45°34' W 122°44'0 0.0
2018-Jan-11 18:00N 45°34' W 122°44'0 0.0
2018-Jan-11 17:30N 45°34' W 122°44'0 0.0
2018-Jan-11 17:01N 45°34' W 122°44'0 0.0
2018-Jan-11 16:30N 45°34' W 122°44'2 3.9
2018-Jan-11 16:00N 45°35' W 122°46'0 0.0
2018-Jan-11 15:30N 45°35' W 122°46'0 0.0
2018-Jan-11 15:00N 45°35' W 122°46'0 0.0
2018-Jan-11 14:30N 45°35' W 122°46'0 0.0
2018-Jan-11 14:00N 45°35' W 122°46'0 0.0
2018-Jan-11 13:29N 45°35' W 122°46'0 0.0
2018-Jan-11 13:00N 45°35' W 122°46'0 0.0
2018-Jan-11 12:30N 45°35' W 122°46'0 0.0
2018-Jan-11 12:00N 45°35' W 122°46'0 0.0
2018-Jan-11 11:30N 45°35' W 122°46'0 0.0
2018-Jan-11 11:00N 45°35' W 122°46'0 0.0
2018-Jan-11 10:30N 45°35' W 122°46'3 5.5
2018-Jan-11 10:00N 45°34' W 122°43'1 1.7
2018-Jan-11 09:30N 45°34' W 122°44'0 0.0
2018-Jan-11 09:01N 45°34' W 122°44'0 0.1
2018-Jan-11 08:31N 45°34' W 122°44'0 0.0
2018-Jan-11 08:01N 45°34' W 122°44'1 1.0
2018-Jan-11 07:30N 45°34' W 122°44'2 4.8
2018-Jan-11 07:00N 45°35' W 122°46'0 0.0
2018-Jan-11 06:30N 45°35' W 122°46'0 0.0
2018-Jan-11 06:00N 45°35' W 122°46'0 0.0
2018-Jan-11 05:30N 45°35' W 122°46'0 0.0
2018-Jan-11 04:56N 45°35' W 122°46'0 0.0
2018-Jan-11 04:29N 45°35' W 122°46'0 0.0
2018-Jan-11 04:00N 45°35' W 122°46'0 0.0
2018-Jan-11 03:30N 45°35' W 122°46'0 0.0
2018-Jan-11 03:00N 45°35' W 122°46'0 0.0
2018-Jan-11 02:30N 45°35' W 122°46'0 0.0
2018-Jan-11 01:58N 45°35' W 122°46'0 0.0
2018-Jan-11 01:30N 45°35' W 122°46'0 0.0
2018-Jan-11 01:00N 45°35' W 122°46'0 0.0
2018-Jan-11 00:30N 45°35' W 122°46'0 0.0
2018-Jan-11 00:00N 45°35' W 122°46'2 3.8
2018-Jan-10 23:30N 45°34' W 122°44'0 0.2
2018-Jan-10 23:00N 45°34' W 122°44'3 5.6
2018-Jan-10 22:30N 45°36' W 122°47'3 6.8
2018-Jan-10 22:01N 45°39' W 122°46'4 8.1
2018-Jan-10 21:30N 45°44' W 122°46'4 8.1
2018-Jan-10 21:00N 45°48' W 122°47'4 8.0
2018-Jan-10 20:30N 45°52' W 122°47'5 8.1
2018-Jan-10 19:52N 45°57' W 122°48'3 8.3
2018-Jan-10 19:29N 45°59' W 122°51'4 8.4
2018-Jan-10 19:00N 46°03' W 122°53'4 7.8
2018-Jan-10 18:30N 46°06' W 122°57'2 4.3
2018-Jan-10 18:00N 46°07' W 122°59'4 8.8
2018-Jan-10 17:30N 46°10' W 123°05'4 8.6
2018-Jan-10 17:01N 46°11' W 123°10'5 9.0
2018-Jan-10 16:31N 46°09' W 123°16'4 8.5
2018-Jan-10 16:00N 46°09' W 123°22'4 7.9
2018-Jan-10 15:30N 46°12' W 123°26'4 8.1
2018-Jan-10 15:00N 46°16' W 123°27'4 8.0
2018-Jan-10 14:31N 46°15' W 123°33'4 9.0
2018-Jan-10 14:01N 46°15' W 123°39'6 9.3
2018-Jan-10 13:22N 46°13' W 123°47'3 9.1
2018-Jan-10 13:00N 46°12' W 123°52'4 8.6
2018-Jan-10 12:30N 46°13' W 123°57'1 2.1
2018-Jan-10 12:01N 46°14' W 123°58'2 3.8
2018-Jan-10 11:30N 46°12' W 123°56'2 4.0
2018-Jan-10 11:01N 46°11' W 123°54'4 8.4
2018-Jan-10 10:30N 46°12' W 123°48'5 9.7
2018-Jan-10 10:01N 46°15' W 123°42'510.5
2018-Jan-10 09:30N 46°15' W 123°34'5 9.9
2018-Jan-10 09:00N 46°16' W 123°27'510.5
2018-Jan-10 08:30N 46°10' W 123°25'510.2
2018-Jan-10 08:00N 46°09' W 123°18'510.6
2018-Jan-10 07:30N 46°11' W 123°11'5 9.3
2018-Jan-10 07:00N 46°10' W 123°05'510.1
2018-Jan-10 06:31N 46°07' W 122°59'5 9.6
2018-Jan-10 06:00N 46°04' W 122°53'5 9.5
2018-Jan-10 05:30N 45°60' W 122°51'5 9.4
2018-Jan-10 05:01N 45°55' W 122°48'5 9.8
2018-Jan-10 04:30N 45°50' W 122°47'5 9.5
2018-Jan-10 04:00N 45°46' W 122°46'510.1
2018-Jan-10 03:31N 45°41' W 122°46'6 5.8
2018-Jan-10 02:33N 45°35' W 122°46'0 0.0
2018-Jan-10 02:30N 45°35' W 122°46'0 0.0
2018-Jan-10 02:00N 45°35' W 122°46'0 0.0
2018-Jan-10 01:22N 45°35' W 122°46'1 1.4
2018-Jan-10 00:41N 45°36' W 122°47'2 8.3
2018-Jan-10 00:26N 45°38' W 122°47'3 7.3
2018-Jan-10 00:00N 45°38' W 122°43'0 0.1
2018-Jan-09 23:31N 45°38' W 122°43'2 4.1
2018-Jan-09 23:00N 45°39' W 122°45'3 6.7
2018-Jan-09 22:30N 45°36' W 122°47'1 1.2
2018-Jan-09 21:58N 45°35' W 122°46'0 0.0
2018-Jan-09 21:28N 45°35' W 122°46'0 0.0
2018-Jan-09 20:52N 45°35' W 122°46'0 0.0
2018-Jan-09 20:19N 45°35' W 122°46'0 0.0
2018-Jan-09 19:59N 45°35' W 122°46'0 0.1
2018-Jan-09 19:31N 45°35' W 122°46'0 0.0
2018-Jan-09 19:00N 45°35' W 122°46'0 0.0
2018-Jan-09 18:30N 45°35' W 122°46'0 0.0
2018-Jan-09 18:00N 45°35' W 122°46'0 0.0
2018-Jan-09 17:27N 45°35' W 122°46'0 0.0
2018-Jan-09 16:57N 45°35' W 122°46'0 0.0
2018-Jan-09 16:27N 45°35' W 122°46'0 0.0
2018-Jan-09 16:00N 45°35' W 122°46'0 0.0
2018-Jan-09 15:30N 45°35' W 122°46'0 0.0
2018-Jan-09 15:00N 45°35' W 122°46'0 0.0
2018-Jan-09 14:30N 45°35' W 122°46'0 0.0
2018-Jan-09 14:00N 45°35' W 122°46'0 0.0
2018-Jan-09 13:30N 45°35' W 122°46'0 0.0
2018-Jan-09 13:00N 45°35' W 122°46'0 0.0
2018-Jan-09 12:24N 45°35' W 122°46'0 0.0
2018-Jan-09 12:00N 45°35' W 122°46'0 0.0
2018-Jan-09 11:30N 45°35' W 122°46'0 0.0
2018-Jan-09 10:48N 45°35' W 122°46'0 0.0
2018-Jan-09 10:27N 45°35' W 122°46'0 0.0
2018-Jan-09 10:00N 45°35' W 122°46'0 0.0
2018-Jan-09 09:30N 45°35' W 122°46'0 0.0
2018-Jan-09 08:57N 45°35' W 122°46'0 0.0
2018-Jan-09 08:24N 45°35' W 122°46'0 0.0
2018-Jan-09 08:00N 45°35' W 122°46'0 0.0
2018-Jan-09 07:30N 45°35' W 122°46'0 0.0
2018-Jan-09 07:00N 45°35' W 122°46'0 0.0
2018-Jan-09 06:27N 45°35' W 122°46'2 3.8
2018-Jan-09 06:00N 45°37' W 122°47'3 6.5
2018-Jan-09 05:30N 45°38' W 122°43'1 2.0
2018-Jan-09 05:00N 45°38' W 122°42'1 1.3
2018-Jan-09 04:30N 45°38' W 122°43'1 1.4
2018-Jan-09 04:01N 45°38' W 122°44'1 1.9
2018-Jan-09 03:18N 45°39' W 122°45'0 0.0
2018-Jan-09 02:51N 45°39' W 122°45'0 0.0
2018-Jan-09 02:31N 45°39' W 122°45'0 0.0
2018-Jan-09 02:00N 45°39' W 122°45'0 0.0
2018-Jan-09 01:30N 45°39' W 122°45'0 0.0
2018-Jan-09 01:01N 45°39' W 122°45'  
Track history (hours):
 
Tides and Currents Weather Stations Pressure Air Temp Water Temp Dewpoint Dewpoint Depression Visibility Wind Speed Wind Dir Waves Ship Positions

Pj Brix

Owner: Foss Maritime Co., Portland, OR. More information available from US FCC via Universal Licensing System and Coast Guard Vessel Documentation Center.

Last reported at 2018-Jan-19 00:45 UTC. Time now 2018-Jan-19 01:23 UTC.
Position N 45°39' W 122°45'.

Length 39 m; draft 3 m.

Type: Towing. MMSI: 2249672.

Date/timePositionNaut miles runAvg speedWind from/ knotsBaromVisibWave heightAir tempDewpointWater temp
2018-Jan-19 00:45N 45°39' W 122°45'0 0.0
2018-Jan-19 00:29N 45°39' W 122°45'0 0.0
2018-Jan-18 23:59N 45°39' W 122°45'0 0.0
2018-Jan-18 23:29N 45°39' W 122°45'0 0.0
2018-Jan-18 22:56N 45°39' W 122°45'0 0.0
2018-Jan-18 22:29N 45°39' W 122°45'0 0.0
2018-Jan-18 21:59N 45°39' W 122°45'0 0.0
2018-Jan-18 21:27N 45°39' W 122°45'0 0.0
2018-Jan-18 20:47N 45°39' W 122°45'0 0.0
2018-Jan-18 20:26N 45°39' W 122°45'0 0.0
2018-Jan-18 20:00N 45°39' W 122°45'0 0.0
2018-Jan-18 19:30N 45°39' W 122°45'0 0.0
2018-Jan-18 18:59N 45°39' W 122°45'0 0.0
2018-Jan-18 18:30N 45°39' W 122°45'0 0.0
2018-Jan-18 18:00N 45°39' W 122°45'0 0.0
2018-Jan-18 17:29N 45°39' W 122°45'0 0.0
2018-Jan-18 16:59N 45°39' W 122°45'0 0.0
2018-Jan-18 16:27N 45°39' W 122°45'0 0.0
2018-Jan-18 16:00N 45°39' W 122°45'0 0.0
2018-Jan-18 15:29N 45°39' W 122°45'0 0.0
2018-Jan-18 14:56N 45°39' W 122°45'0 0.0
2018-Jan-18 14:30N 45°39' W 122°45'0 0.0
2018-Jan-18 14:00N 45°39' W 122°45'0 0.0
2018-Jan-18 13:29N 45°39' W 122°45'0 0.0
2018-Jan-18 12:56N 45°39' W 122°45'0 0.0
2018-Jan-18 12:20N 45°39' W 122°45'0 0.0
2018-Jan-18 11:56N 45°39' W 122°45'0 0.0
2018-Jan-18 11:29N 45°39' W 122°45'0 0.0
2018-Jan-18 10:57N 45°39' W 122°45'0 0.0
2018-Jan-18 10:20N 45°39' W 122°45'0 0.0
2018-Jan-18 09:54N 45°39' W 122°45'0 0.0
2018-Jan-18 09:30N 45°39' W 122°45'0 0.0
2018-Jan-18 08:59N 45°39' W 122°45'0 0.0
2018-Jan-18 08:30N 45°39' W 122°45'0 0.0
2018-Jan-18 07:59N 45°39' W 122°45'0 0.0
2018-Jan-18 07:29N 45°39' W 122°45'0 0.0
2018-Jan-18 06:59N 45°39' W 122°45'0 0.0
2018-Jan-18 06:29N 45°39' W 122°45'0 0.0
2018-Jan-18 06:00N 45°39' W 122°45'0 0.0
2018-Jan-18 05:26N 45°39' W 122°45'0 0.0
2018-Jan-18 04:56N 45°39' W 122°45'0 0.0
2018-Jan-18 04:29N 45°39' W 122°45'0 0.0
2018-Jan-18 04:00N 45°39' W 122°45'1 1.3
2018-Jan-18 03:30N 45°39' W 122°46'0 0.9
2018-Jan-18 03:00N 45°39' W 122°46'1 1.5
2018-Jan-18 02:30N 45°39' W 122°46'0 0.9
2018-Jan-18 02:00N 45°39' W 122°45'2 3.1
2018-Jan-18 01:21N 45°38' W 122°47'3 7.6
2018-Jan-18 01:00N 45°35' W 122°46'0 0.2
2018-Jan-18 00:00N 45°35' W 122°46'0 0.0
2018-Jan-17 23:57N 45°35' W 122°46'  
2018-Jan-12 15:00N 45°43' W 122°46'4 7.7
2018-Jan-12 14:30N 45°39' W 122°45'0 0.0
2018-Jan-12 14:00N 45°39' W 122°45'0 0.0
2018-Jan-12 13:31N 45°39' W 122°45'0 0.0
2018-Jan-12 13:01N 45°39' W 122°45'0 0.0
2018-Jan-12 12:31N 45°39' W 122°45'0 0.0
2018-Jan-12 12:00N 45°39' W 122°45'0 0.0
2018-Jan-12 11:31N 45°39' W 122°45'0 0.0
2018-Jan-12 11:00N 45°39' W 122°45'0 0.0
2018-Jan-12 10:31N 45°39' W 122°45'0 0.0
2018-Jan-12 10:00N 45°39' W 122°45'0 0.0
2018-Jan-12 09:30N 45°39' W 122°45'0 0.0
2018-Jan-12 09:01N 45°39' W 122°45'0 0.0
2018-Jan-12 08:31N 45°39' W 122°45'0 0.0
2018-Jan-12 08:01N 45°39' W 122°45'1 2.6
2018-Jan-12 07:30N 45°38' W 122°47'2 4.8
2018-Jan-12 07:00N 45°36' W 122°46'0 0.1
2018-Jan-12 06:30N 45°36' W 122°46'1 2.5
2018-Jan-12 06:00N 45°37' W 122°47'2 4.6
2018-Jan-12 05:30N 45°39' W 122°45'1 2.7
2018-Jan-12 04:58N 45°38' W 122°43'1 2.6
2018-Jan-12 04:30N 45°39' W 122°45'2 4.6
2018-Jan-12 04:01N 45°37' W 122°47'5 9.7
2018-Jan-12 03:31N 45°33' W 122°43'0 0.5
2018-Jan-12 03:00N 45°33' W 122°42'2 3.2
2018-Jan-12 02:31N 45°34' W 122°44'0 0.4
2018-Jan-12 02:01N 45°34' W 122°44'0 0.3
2018-Jan-12 01:31N 45°34' W 122°44'0 0.0
2018-Jan-12 01:00N 45°34' W 122°44'0 0.0
2018-Jan-12 00:30N 45°34' W 122°44'0 0.0
2018-Jan-12 00:01N 45°34' W 122°44'0 0.0
2018-Jan-11 23:30N 45°34' W 122°44'0 0.0
2018-Jan-11 23:01N 45°34' W 122°44'0 0.0
2018-Jan-11 22:30N 45°34' W 122°44'0 0.0
2018-Jan-11 22:00N 45°34' W 122°44'0 0.0
2018-Jan-11 21:31N 45°34' W 122°44'0 0.0
2018-Jan-11 21:00N 45°34' W 122°44'0 0.0
2018-Jan-11 20:30N 45°34' W 122°44'0 0.0
2018-Jan-11 20:00N 45°34' W 122°44'0 0.0
2018-Jan-11 19:31N 45°34' W 122°44'0 0.0
2018-Jan-11 19:00N 45°34' W 122°44'0 0.0
2018-Jan-11 18:31N 45°34' W 122°44'0 0.0
2018-Jan-11 18:00N 45°34' W 122°44'0 0.0
2018-Jan-11 17:30N 45°34' W 122°44'0 0.0
2018-Jan-11 17:01N 45°34' W 122°44'0 0.0
2018-Jan-11 16:30N 45°34' W 122°44'2 3.9
2018-Jan-11 16:00N 45°35' W 122°46'0 0.0
2018-Jan-11 15:30N 45°35' W 122°46'0 0.0
2018-Jan-11 15:00N 45°35' W 122°46'0 0.0
2018-Jan-11 14:30N 45°35' W 122°46'0 0.0
2018-Jan-11 14:00N 45°35' W 122°46'0 0.0
2018-Jan-11 13:29N 45°35' W 122°46'0 0.0
2018-Jan-11 13:00N 45°35' W 122°46'0 0.0
2018-Jan-11 12:30N 45°35' W 122°46'0 0.0
2018-Jan-11 12:00N 45°35' W 122°46'0 0.0
2018-Jan-11 11:30N 45°35' W 122°46'0 0.0
2018-Jan-11 11:00N 45°35' W 122°46'0 0.0
2018-Jan-11 10:30N 45°35' W 122°46'3 5.5
2018-Jan-11 10:00N 45°34' W 122°43'1 1.7
2018-Jan-11 09:30N 45°34' W 122°44'0 0.0
2018-Jan-11 09:01N 45°34' W 122°44'0 0.1
2018-Jan-11 08:31N 45°34' W 122°44'0 0.0
2018-Jan-11 08:01N 45°34' W 122°44'1 1.0
2018-Jan-11 07:30N 45°34' W 122°44'2 4.8
2018-Jan-11 07:00N 45°35' W 122°46'0 0.0
2018-Jan-11 06:30N 45°35' W 122°46'0 0.0
2018-Jan-11 06:00N 45°35' W 122°46'0 0.0
2018-Jan-11 05:30N 45°35' W 122°46'0 0.0
2018-Jan-11 04:56N 45°35' W 122°46'0 0.0
2018-Jan-11 04:29N 45°35' W 122°46'0 0.0
2018-Jan-11 04:00N 45°35' W 122°46'0 0.0
2018-Jan-11 03:30N 45°35' W 122°46'0 0.0
2018-Jan-11 03:00N 45°35' W 122°46'0 0.0
2018-Jan-11 02:30N 45°35' W 122°46'0 0.0
2018-Jan-11 01:58N 45°35' W 122°46'0 0.0
2018-Jan-11 01:30N 45°35' W 122°46'0 0.0
2018-Jan-11 01:00N 45°35' W 122°46'0 0.0
2018-Jan-11 00:30N 45°35' W 122°46'0 0.0
2018-Jan-11 00:00N 45°35' W 122°46'2 3.8
2018-Jan-10 23:30N 45°34' W 122°44'0 0.2
2018-Jan-10 23:00N 45°34' W 122°44'3 5.6
2018-Jan-10 22:30N 45°36' W 122°47'3 6.8
2018-Jan-10 22:01N 45°39' W 122°46'4 8.1
2018-Jan-10 21:30N 45°44' W 122°46'4 8.1
2018-Jan-10 21:00N 45°48' W 122°47'4 8.0
2018-Jan-10 20:30N 45°52' W 122°47'5 8.1
2018-Jan-10 19:52N 45°57' W 122°48'3 8.3
2018-Jan-10 19:29N 45°59' W 122°51'4 8.4
2018-Jan-10 19:00N 46°03' W 122°53'4 7.8
2018-Jan-10 18:30N 46°06' W 122°57'2 4.3
2018-Jan-10 18:00N 46°07' W 122°59'4 8.8
2018-Jan-10 17:30N 46°10' W 123°05'4 8.6
2018-Jan-10 17:01N 46°11' W 123°10'5 9.0
2018-Jan-10 16:31N 46°09' W 123°16'4 8.5
2018-Jan-10 16:00N 46°09' W 123°22'4 7.9
2018-Jan-10 15:30N 46°12' W 123°26'4 8.1
2018-Jan-10 15:00N 46°16' W 123°27'4 8.0
2018-Jan-10 14:31N 46°15' W 123°33'4 9.0
2018-Jan-10 14:01N 46°15' W 123°39'6 9.3
2018-Jan-10 13:22N 46°13' W 123°47'3 9.1
2018-Jan-10 13:00N 46°12' W 123°52'4 8.6
2018-Jan-10 12:30N 46°13' W 123°57'1 2.1
2018-Jan-10 12:01N 46°14' W 123°58'2 3.8
2018-Jan-10 11:30N 46°12' W 123°56'2 4.0
2018-Jan-10 11:01N 46°11' W 123°54'4 8.4
2018-Jan-10 10:30N 46°12' W 123°48'5 9.7
2018-Jan-10 10:01N 46°15' W 123°42'510.5
2018-Jan-10 09:30N 46°15' W 123°34'5 9.9
2018-Jan-10 09:00N 46°16' W 123°27'510.5
2018-Jan-10 08:30N 46°10' W 123°25'510.2
2018-Jan-10 08:00N 46°09' W 123°18'510.6
2018-Jan-10 07:30N 46°11' W 123°11'5 9.3
2018-Jan-10 07:00N 46°10' W 123°05'510.1
2018-Jan-10 06:31N 46°07' W 122°59'5 9.6
2018-Jan-10 06:00N 46°04' W 122°53'5 9.5
2018-Jan-10 05:30N 45°60' W 122°51'5 9.4
2018-Jan-10 05:01N 45°55' W 122°48'5 9.8
2018-Jan-10 04:30N 45°50' W 122°47'5 9.5
2018-Jan-10 04:00N 45°46' W 122°46'510.1
2018-Jan-10 03:31N 45°41' W 122°46'6 5.8
2018-Jan-10 02:33N 45°35' W 122°46'0 0.0
2018-Jan-10 02:30N 45°35' W 122°46'0 0.0
2018-Jan-10 02:00N 45°35' W 122°46'0 0.0
2018-Jan-10 01:22N 45°35' W 122°46'1 1.4
2018-Jan-10 00:41N 45°36' W 122°47'2 8.3
2018-Jan-10 00:26N 45°38' W 122°47'3 7.3
2018-Jan-10 00:00N 45°38' W 122°43'0 0.1
2018-Jan-09 23:31N 45°38' W 122°43'2 4.1
2018-Jan-09 23:00N 45°39' W 122°45'3 6.7
2018-Jan-09 22:30N 45°36' W 122°47'1 1.2
2018-Jan-09 21:58N 45°35' W 122°46'0 0.0
2018-Jan-09 21:28N 45°35' W 122°46'0 0.0
2018-Jan-09 20:52N 45°35' W 122°46'0 0.0
2018-Jan-09 20:19N 45°35' W 122°46'0 0.0
2018-Jan-09 19:59N 45°35' W 122°46'0 0.1
2018-Jan-09 19:31N 45°35' W 122°46'0 0.0
2018-Jan-09 19:00N 45°35' W 122°46'0 0.0
2018-Jan-09 18:30N 45°35' W 122°46'0 0.0
2018-Jan-09 18:00N 45°35' W 122°46'0 0.0
2018-Jan-09 17:27N 45°35' W 122°46'0 0.0
2018-Jan-09 16:57N 45°35' W 122°46'0 0.0
2018-Jan-09 16:27N 45°35' W 122°46'0 0.0
2018-Jan-09 16:00N 45°35' W 122°46'0 0.0
2018-Jan-09 15:30N 45°35' W 122°46'0 0.0
2018-Jan-09 15:00N 45°35' W 122°46'0 0.0
2018-Jan-09 14:30N 45°35' W 122°46'0 0.0
2018-Jan-09 14:00N 45°35' W 122°46'0 0.0
2018-Jan-09 13:30N 45°35' W 122°46'0 0.0
2018-Jan-09 13:00N 45°35' W 122°46'0 0.0
2018-Jan-09 12:24N 45°35' W 122°46'0 0.0
2018-Jan-09 12:00N 45°35' W 122°46'0 0.0
2018-Jan-09 11:30N 45°35' W 122°46'0 0.0
2018-Jan-09 10:48N 45°35' W 122°46'0 0.0
2018-Jan-09 10:27N 45°35' W 122°46'0 0.0
2018-Jan-09 10:00N 45°35' W 122°46'0 0.0
2018-Jan-09 09:30N 45°35' W 122°46'0 0.0
2018-Jan-09 08:57N 45°35' W 122°46'0 0.0
2018-Jan-09 08:24N 45°35' W 122°46'0 0.0
2018-Jan-09 08:00N 45°35' W 122°46'0 0.0
2018-Jan-09 07:30N 45°35' W 122°46'0 0.0
2018-Jan-09 07:00N 45°35' W 122°46'0 0.0
2018-Jan-09 06:27N 45°35' W 122°46'2 3.8
2018-Jan-09 06:00N 45°37' W 122°47'3 6.5
2018-Jan-09 05:30N 45°38' W 122°43'1 2.0
2018-Jan-09 05:00N 45°38' W 122°42'1 1.3
2018-Jan-09 04:30N 45°38' W 122°43'1 1.4
2018-Jan-09 04:01N 45°38' W 122°44'1 1.9
2018-Jan-09 03:18N 45°39' W 122°45'0 0.0
2018-Jan-09 02:51N 45°39' W 122°45'0 0.0
2018-Jan-09 02:31N 45°39' W 122°45'0 0.0
2018-Jan-09 02:00N 45°39' W 122°45'0 0.0
2018-Jan-09 01:30N 45°39' W 122°45'0 0.0
2018-Jan-09 01:01N 45°39' W 122°45'  

Dump ship's entire track history